Time;durP1;ratioP1;P1;durP2;ratioP2;P2;SDS_P1;SDS_P2;PMS_P1;PMS_P2;Temp;Humidity;BMP_temperature;BMP_pressure;BME280_temperature;BME280_humidity;BME280_pressure;Samples;Min_cycle;Max_cycle;Signal;HPM_P1;HPM_P2
2022/04/22 00:01:10;;;;;;;6.53;5.67;;;13.90;99.90;;;;;;5114036;28;20653;-72
2022/04/22 00:03:37;;;;;;;8.67;5.47;;;13.80;99.90;;;;;;5114077;28;20178;-70
2022/04/22 00:06:03;;;;;;;7.83;4.87;;;13.80;1.00;;;;;;5096054;28;20193;-70
2022/04/22 00:08:29;;;;;;;14.57;5.03;;;13.70;1.00;;;;;;5114028;28;20168;-71
2022/04/22 00:13:39;;;;;;;7.37;5.60;;;13.60;1.00;;;;;;5114095;28;20216;-72
2022/04/22 00:16:06;;;;;;;8.47;5.63;;;13.40;1.00;;;;;;5095729;28;20254;-71
2022/04/22 00:18:32;;;;;;;7.80;5.43;;;13.30;99.90;;;;;;5113949;28;20266;-70
2022/04/22 00:20:58;;;;;;;8.70;6.13;;;13.10;99.90;;;;;;5113660;28;20203;-71
2022/04/22 00:23:26;;;;;;;8.93;6.10;;;13.10;99.90;;;;;;5113035;28;20206;-71
2022/04/22 00:25:52;;;;;;;7.80;5.70;;;13.00;1.00;;;;;;5094417;28;20280;-71
2022/04/22 00:28:18;;;;;;;8.33;5.80;;;12.90;1.00;;;;;;5113539;28;20163;-71
2022/04/22 00:30:44;;;;;;;8.27;5.70;;;12.80;1.00;;;;;;5113700;28;20645;-71
2022/04/22 00:33:10;;;;;;;7.03;6.00;;;12.80;99.90;;;;;;5113842;28;20163;-71
2022/04/22 00:35:36;;;;;;;6.30;5.53;;;12.70;99.90;;;;;;5113678;28;20175;-71
2022/04/22 00:38:01;;;;;;;6.97;5.50;;;12.70;99.90;;;;;;5113224;28;20259;-71
2022/04/22 00:40:27;;;;;;;7.03;6.10;;;12.60;99.90;;;;;;5113290;28;20171;-70
2022/04/22 00:42:53;;;;;;;5.33;4.53;;;12.50;1.00;;;;;;5113751;28;20232;-71
2022/04/22 00:45:20;;;;;;;6.83;5.47;;;12.40;1.00;;;;;;5113555;28;20636;-71
2022/04/22 00:47:46;;;;;;;7.37;5.67;;;12.40;1.00;;;;;;5113684;28;20217;-69
2022/04/22 00:50:12;;;;;;;6.73;6.03;;;12.30;1.00;;;;;;5113620;28;20168;-71
2022/04/22 00:52:38;;;;;;;6.50;5.90;;;12.30;1.00;;;;;;5095278;28;20249;-71
2022/04/22 00:55:05;;;;;;;6.90;5.63;;;12.20;77.90;;;;;;5113153;28;20177;-71
2022/04/22 00:57:32;;;;;;;9.47;5.90;;;12.20;98.20;;;;;;5113073;28;20218;-71
2022/04/22 00:59:58;;;;;;;6.57;5.53;;;12.20;99.90;;;;;;5113419;28;20607;-71
2022/04/22 01:02:24;;;;;;;9.13;6.30;;;12.20;99.90;;;;;;5113260;28;20211;-71
2022/04/22 01:10:18;;;;;;;7.10;6.23;;;12.00;99.90;;;;;;5117561;28;20220;-70
2022/04/22 01:12:44;;;;;;;6.97;6.27;;;12.00;99.90;;;;;;5117532;28;20167;-70
2022/04/22 01:15:10;;;;;;;9.17;5.93;;;11.90;1.00;;;;;;5117419;28;20170;-70
2022/04/22 01:17:36;;;;;;;6.50;5.90;;;11.80;1.00;;;;;;5117463;28;20176;-70
2022/04/22 01:20:03;;;;;;;7.67;6.37;;;11.80;1.00;;;;;;5117295;28;20189;-70
2022/04/22 01:22:28;;;;;;;7.63;6.03;;;11.70;1.00;;;;;;5117013;28;20252;-70
2022/04/22 01:24:57;;;;;;;8.27;6.50;;;11.80;1.00;;;;;;5117265;28;20171;-70
2022/04/22 01:27:24;;;;;;;6.57;6.07;;;11.70;1.00;;;;;;5099141;28;20285;-70
2022/04/22 01:29:50;;;;;;;8.83;6.93;;;11.70;1.00;;;;;;5117311;28;20610;-70
2022/04/22 01:32:15;;;;;;;7.37;6.40;;;11.60;1.00;;;;;;5117240;28;20178;-70
2022/04/22 01:34:42;;;;;;;7.90;7.10;;;11.60;1.00;;;;;;5117128;28;20533;-71
2022/04/22 01:37:08;;;;;;;11.37;6.90;;;11.60;1.00;;;;;;5116634;28;20222;-71
2022/04/22 01:39:33;;;;;;;9.23;7.30;;;11.50;1.00;;;;;;5117202;28;20232;-71
2022/04/22 01:41:59;;;;;;;8.93;7.47;;;11.50;1.00;;;;;;5117177;28;20214;-70
2022/04/22 01:44:26;;;;;;;8.83;7.20;;;11.50;1.00;;;;;;5117203;28;20253;-71
2022/04/22 01:46:52;;;;;;;8.40;7.33;;;11.40;1.00;;;;;;5117219;28;20171;-71
2022/04/22 01:49:18;;;;;;;9.33;7.60;;;11.40;1.00;;;;;;5098315;28;20207;-71
2022/04/22 01:51:44;;;;;;;8.23;7.33;;;11.30;1.00;;;;;;5116303;28;20178;-71
2022/04/22 01:54:11;;;;;;;8.63;6.83;;;11.30;1.00;;;;;;5116873;28;20168;-71
2022/04/22 01:56:36;;;;;;;11.03;7.33;;;11.20;1.00;;;;;;5116309;28;20272;-70
2022/04/22 01:59:02;;;;;;;8.50;6.90;;;11.20;1.00;;;;;;5116768;28;20171;-71
2022/04/22 02:01:27;;;;;;;12.10;7.50;;;11.20;1.00;;;;;;5116484;28;20290;-71
2022/04/22 02:03:53;;;;;;;8.53;7.40;;;11.10;1.00;;;;;;5116296;28;20258;-71
2022/04/22 02:06:19;;;;;;;7.93;7.17;;;11.10;1.00;;;;;;5116256;28;20582;-71
2022/04/22 02:08:44;;;;;;;10.83;7.57;;;11.10;1.00;;;;;;5116422;28;20607;-71
2022/04/22 02:11:10;;;;;;;8.10;6.90;;;11.00;1.00;;;;;;5116562;28;20167;-71
2022/04/22 02:13:39;;;;;;;7.57;6.87;;;11.00;1.00;;;;;;5116708;28;20174;-71
2022/04/22 02:16:08;;;;;;;11.17;7.50;;;10.90;1.00;;;;;;5116260;28;20224;-71
2022/04/22 02:18:36;;;;;;;8.60;7.73;;;10.90;1.00;;;;;;5097804;28;20184;-71
2022/04/22 02:21:03;;;;;;;10.87;8.33;;;10.90;1.00;;;;;;5115218;28;20722;-71
2022/04/22 02:23:29;;;;;;;11.07;8.20;;;10.90;1.00;;;;;;5116142;28;20254;-71
2022/04/22 02:25:55;;;;;;;11.23;8.60;;;10.90;1.00;;;;;;5116006;28;20207;-71
2022/04/22 02:28:32;;;;;;;11.00;8.60;;;10.80;1.00;;;;;;5116054;28;20172;-71
2022/04/22 02:31:08;;;;;;;8.77;7.53;;;10.80;1.00;;;;;;5116327;28;20224;-70
2022/04/22 02:33:37;;;;;;;10.60;8.80;;;10.70;1.00;;;;;;5116015;28;20644;-71
2022/04/22 02:36:03;;;;;;;10.70;9.10;;;10.70;1.00;;;;;;5097143;28;20614;-71
2022/04/22 02:38:29;;;;;;;10.83;9.03;;;10.60;1.00;;;;;;5116089;28;20175;-71
2022/04/22 02:46:24;;;;;;;10.50;9.50;;;10.50;1.00;;;;;;5115758;28;20590;-71
2022/04/22 02:48:51;;;;;;;12.03;9.03;;;10.30;1.00;;;;;;5115323;28;20575;-71
2022/04/22 02:51:17;;;;;;;12.40;10.03;;;10.40;1.00;;;;;;5115475;28;20648;-70
2022/04/22 02:53:43;;;;;;;13.57;9.13;;;10.30;1.00;;;;;;5115786;28;20167;-70
2022/04/22 02:56:09;;;;;;;15.53;9.53;;;10.30;1.00;;;;;;5115479;28;20226;-71
2022/04/22 02:58:35;;;;;;;11.17;9.27;;;10.30;1.00;;;;;;5115538;28;20203;-70
2022/04/22 03:01:02;;;;;;;12.63;10.63;;;10.30;1.00;;;;;;5115373;28;20214;-71
2022/04/22 03:03:28;;;;;;;17.53;10.53;;;10.20;1.00;;;;;;5114736;28;20163;-71
2022/04/22 03:05:54;;;;;;;15.13;10.30;;;10.20;1.00;;;;;;5097013;28;20222;-71
2022/04/22 03:08:20;;;;;;;12.17;10.47;;;10.10;1.00;;;;;;5115206;28;20168;-71
2022/04/22 03:10:48;;;;;;;13.63;9.93;;;10.10;1.00;;;;;;5115101;28;20183;-71
2022/04/22 03:13:14;;;;;;;14.03;10.53;;;10.00;1.00;;;;;;5096874;28;20186;-71
2022/04/22 03:15:41;;;;;;;12.70;11.40;;;10.00;1.00;;;;;;5115033;28;20175;-71
2022/04/22 03:18:07;;;;;;;18.37;11.47;;;10.00;1.00;;;;;;5114608;28;20175;-70
2022/04/22 03:20:33;;;;;;;15.83;10.77;;;9.90;1.00;;;;;;5115001;28;20175;-71
2022/04/22 03:22:58;;;;;;;14.47;11.30;;;9.90;1.00;;;;;;5114925;28;20263;-71
2022/04/22 03:25:24;;;;;;;13.93;12.33;;;9.90;1.00;;;;;;5114890;28;20228;-71
2022/04/22 03:27:51;;;;;;;15.83;12.07;;;9.80;1.00;;;;;;5114745;28;20219;-71
2022/04/22 03:30:17;;;;;;;16.20;11.57;;;9.80;1.00;;;;;;5096328;28;20167;-71
2022/04/22 03:32:43;;;;;;;19.40;13.27;;;9.80;1.00;;;;;;5113507;28;20216;-71
2022/04/22 03:35:09;;;;;;;13.20;11.80;;;9.70;1.00;;;;;;5115054;28;20171;-71
2022/04/22 03:37:35;;;;;;;17.80;13.87;;;9.70;1.00;;;;;;5114558;28;20244;-71
2022/04/22 03:40:02;;;;;;;15.00;11.47;;;9.70;1.00;;;;;;5114737;28;20175;-71
2022/04/22 03:42:29;;;;;;;17.97;13.90;;;9.70;1.00;;;;;;5114443;28;20297;-71
2022/04/22 03:44:56;;;;;;;18.43;13.53;;;9.70;1.00;;;;;;5114191;28;20155;-71
2022/04/22 03:47:22;;;;;;;18.77;14.10;;;9.60;1.00;;;;;;5113402;28;20167;-71
2022/04/22 03:49:48;;;;;;;16.83;13.80;;;9.60;1.00;;;;;;5114256;28;20285;-71
2022/04/22 03:52:14;;;;;;;15.40;13.80;;;9.60;1.00;;;;;;5114092;28;20170;-71
2022/04/22 03:54:40;;;;;;;20.73;15.37;;;9.60;1.00;;;;;;5113545;28;20586;-71
2022/04/22 03:59:49;;;;;;;16.70;14.27;;;9.60;2.70;;;;;;5113904;28;20644;-71
2022/04/22 04:02:15;;;;;;;17.93;14.53;;;9.60;3.70;;;;;;5113438;28;20192;-72
2022/04/22 04:04:40;;;;;;;19.77;15.20;;;9.50;5.50;;;;;;5113858;28;20159;-72
2022/04/22 04:07:06;;;;;;;19.93;13.03;;;9.50;6.90;;;;;;5113842;28;20175;-71
2022/04/22 04:17:44;;;;;;;22.57;16.83;;;9.40;14.70;;;;;;5113668;28;20227;-71
2022/04/22 04:25:40;;;;;;;19.27;14.53;;;9.40;19.00;;;;;;5113780;28;20226;-71
2022/04/22 04:28:10;;;;;;;21.80;17.27;;;9.30;21.00;;;;;;5094877;28;20179;-71
2022/04/22 04:30:43;;;;;;;19.30;17.10;;;9.30;23.10;;;;;;5113282;28;20273;-71
2022/04/22 04:33:09;;;;;;;21.13;17.43;;;9.30;24.20;;;;;;5113683;28;20206;-71
2022/04/22 04:35:37;;;;;;;17.10;11.37;;;9.30;24.50;;;;;;5113475;28;20664;-71
2022/04/22 04:38:04;;;;;;;21.80;18.03;;;9.30;25.20;;;;;;5113453;28;20273;-71
2022/04/22 04:40:31;;;;;;;20.10;17.30;;;9.30;25.80;;;;;;5113608;28;20179;-71
2022/04/22 04:42:57;;;;;;;25.73;17.70;;;9.20;26.90;;;;;;5113486;28;20199;-72
2022/04/22 04:45:23;;;;;;;25.50;18.30;;;9.20;27.90;;;;;;5094614;28;20178;-71
2022/04/22 04:47:49;;;;;;;22.67;18.67;;;9.20;29.20;;;;;;5095147;28;20202;-71
2022/04/22 04:50:14;;;;;;;28.97;19.00;;;9.30;29.30;;;;;;5113205;28;20174;-72
2022/04/22 04:52:41;;;;;;;28.57;20.60;;;9.30;28.20;;;;;;5112205;28;20185;-71
2022/04/22 04:55:09;;;;;;;23.60;19.40;;;9.40;27.30;;;;;;5113225;28;20171;-71
2022/04/22 04:57:35;;;;;;;24.20;19.53;;;9.50;22.80;;;;;;5112558;28;20233;-70
2022/04/22 05:00:02;;;;;;;26.10;20.47;;;9.70;22.40;;;;;;5112975;28;20179;-71
2022/04/22 05:02:28;;;;;;;23.03;19.20;;;10.00;9.60;;;;;;5113161;28;20210;-71
2022/04/22 05:04:53;;;;;;;24.20;19.93;;;10.30;1.00;;;;;;5113332;28;20228;-71
2022/04/22 05:07:20;;;;;;;22.90;18.03;;;10.60;1.00;;;;;;5112650;28;20174;-71
2022/04/22 05:09:46;;;;;;;22.87;18.63;;;10.50;1.00;;;;;;5094897;28;20178;-71
2022/04/22 05:12:11;;;;;;;23.27;18.90;;;10.60;1.00;;;;;;5112485;28;20167;-72
2022/04/22 05:14:37;;;;;;;21.00;18.13;;;10.70;1.00;;;;;;5112386;28;20175;-71
2022/04/22 05:17:03;;;;;;;21.23;18.93;;;10.90;1.00;;;;;;5112963;28;20171;-72
2022/04/22 05:19:29;;;;;;;22.97;18.33;;;11.30;1.00;;;;;;5111794;28;20539;-72
2022/04/22 05:21:55;;;;;;;21.03;17.27;;;11.30;1.00;;;;;;5112292;28;20202;-72
2022/04/22 05:24:21;;;;;;;19.93;17.77;;;11.60;1.00;;;;;;5112036;28;20179;-71
2022/04/22 05:26:47;;;;;;;22.37;17.63;;;11.70;1.00;;;;;;5112239;28;20172;-70
2022/04/22 05:34:41;;;;;;;19.53;17.07;;;12.30;1.00;;;;;;5112808;28;20297;-71
2022/04/22 05:37:07;;;;;;;20.43;16.87;;;12.80;1.00;;;;;;5111818;28;20286;-71
2022/04/22 05:39:32;;;;;;;20.43;16.90;;;13.30;1.00;;;;;;5111861;28;20179;-72
2022/04/22 05:42:00;;;;;;;20.57;16.60;;;13.40;99.90;;;;;;5111948;28;20260;-72
2022/04/22 05:44:26;;;;;;;19.97;16.57;;;13.50;99.90;;;;;;5111785;28;20178;-73
2022/04/22 05:46:51;;;;;;;18.67;15.73;;;13.90;1.00;;;;;;5111863;28;20168;-73
2022/04/22 05:49:18;;;;;;;19.30;16.30;;;14.10;1.00;;;;;;5111909;28;20691;-73
2022/04/22 05:51:43;;;;;;;19.57;15.87;;;13.80;99.90;;;;;;5111699;28;20183;-73
2022/04/22 05:54:09;;;;;;;17.33;15.30;;;13.50;99.90;;;;;;5112136;28;20171;-72
2022/04/22 05:56:35;;;;;;;20.27;16.67;;;13.50;99.90;;;;;;5115428;28;20689;-73
2022/04/22 05:59:02;;;;;;;20.17;15.97;;;13.90;1.00;;;;;;5115730;28;20250;-73
2022/04/22 06:01:28;;;;;;;20.03;17.23;;;13.60;34.50;;;;;;5115293;28;20211;-72
2022/04/22 06:03:53;;;;;;;22.10;15.53;;;12.80;1.00;;;;;;5115114;28;20190;-73
2022/04/22 06:06:19;;;;;;;21.17;14.17;;;12.60;1.00;;;;;;5115455;28;20163;-73
2022/04/22 06:11:29;;;;;;;16.93;14.00;;;13.30;1.00;;;;;;5114969;28;20175;-73
2022/04/22 06:13:55;;;;;;;22.03;15.70;;;13.30;1.00;;;;;;5114722;28;20164;-73
2022/04/22 06:16:21;;;;;;;22.13;16.30;;;13.60;99.90;;;;;;5114894;28;20167;-74
2022/04/22 06:18:47;;;;;;;21.43;15.37;;;13.90;87.00;;;;;;5115633;28;20250;-75
2022/04/22 06:21:13;;;;;;;17.03;14.77;;;14.70;1.00;;;;;;5115357;28;20199;-76
2022/04/22 06:23:38;;;;;;;15.77;13.90;;;15.60;1.00;;;;;;5115784;28;20191;-77
2022/04/22 06:26:04;;;;;;;16.47;14.40;;;15.70;1.00;;;;;;5114929;28;20247;-77
2022/04/22 06:28:30;;;;;;;16.87;15.13;;;15.30;99.90;;;;;;5096482;28;20262;-76
2022/04/22 06:30:56;;;;;;;16.77;14.37;;;15.50;99.90;;;;;;5114789;28;20168;-77
2022/04/22 06:33:22;;;;;;;17.90;14.80;;;15.50;99.90;;;;;;5114939;28;20167;-77
2022/04/22 06:35:48;;;;;;;15.50;13.63;;;16.10;1.00;;;;;;5115038;28;20171;-77
2022/04/22 06:38:16;;;;;;;16.83;14.00;;;15.70;1.00;;;;;;5114676;28;20191;-76
2022/04/22 06:46:10;;;;;;;15.40;13.17;;;15.20;99.90;;;;;;5114663;28;20174;-77
2022/04/22 06:48:36;;;;;;;15.57;14.00;;;14.90;99.90;;;;;;5114698;28;20171;-77
2022/04/22 06:51:06;;;;;;;16.77;12.03;;;15.10;1.00;;;;;;5114924;28;20179;-76
2022/04/22 06:53:33;;;;;;;18.23;14.27;;;15.30;99.90;;;;;;5114446;28;20541;-77
2022/04/22 06:56:00;;;;;;;14.73;13.27;;;15.50;1.00;;;;;;5113395;28;20259;-78
2022/04/22 06:58:27;;;;;;;15.57;14.03;;;16.50;31.90;;;;;;5114521;28;20257;-77
2022/04/22 07:00:53;;;;;;;15.37;13.27;;;16.20;99.90;;;;;;5113317;28;20563;-78
2022/04/22 07:03:19;;;;;;;15.87;13.77;;;16.40;1.00;;;;;;5114279;28;20220;-78
2022/04/22 07:05:48;;;;;;;16.63;13.37;;;16.50;1.00;;;;;;5114627;28;20195;-78
2022/04/22 07:08:14;;;;;;;18.23;13.80;;;17.00;99.90;;;;;;5114043;28;20225;-77
2022/04/22 07:10:48;;;;;;;18.60;14.60;;;16.30;1.00;;;;;;5114134;28;20225;-77
2022/04/22 07:13:16;;;;;;;14.53;13.00;;;16.20;1.00;;;;;;5114781;28;20187;-78
2022/04/22 07:15:44;;;;;;;15.40;13.33;;;17.10;99.90;;;;;;5113725;28;20255;-78
2022/04/22 07:18:10;;;;;;;14.80;13.40;;;16.90;99.90;;;;;;5114056;28;20645;-78
2022/04/22 07:20:36;;;;;;;13.93;12.57;;;16.50;1.00;;;;;;5114287;28;20664;-78
2022/04/22 07:23:02;;;;;;;15.10;13.37;;;17.10;34.00;;;;;;5113804;28;20211;-78
2022/04/22 07:25:28;;;;;;;16.40;13.20;;;16.50;1.00;;;;;;5114079;28;20198;-79
2022/04/22 07:27:55;;;;;;;14.27;12.77;;;16.50;1.00;;;;;;5114907;28;20195;-80
2022/04/22 07:30:22;;;;;;;14.93;13.50;;;16.80;99.90;;;;;;5114050;28;20217;-79
2022/04/22 07:32:49;;;;;;;14.87;13.37;;;17.70;1.00;;;;;;5114477;28;20258;-78
2022/04/22 07:35:17;;;;;;;15.30;13.70;;;17.50;1.00;;;;;;5114270;28;20445;-77
2022/04/22 07:37:45;;;;;;;15.23;13.63;;;17.50;1.00;;;;;;5114303;28;20187;-79
2022/04/22 07:40:12;;;;;;;15.90;12.30;;;18.30;1.00;;;;;;5113874;28;20279;-78
2022/04/22 07:42:42;;;;;;;16.80;13.33;;;19.10;1.00;;;;;;5094752;28;20367;-77
2022/04/22 07:47:53;;;;;;;15.80;12.30;;;18.90;1.00;;;;;;5114809;28;20223;-78
2022/04/22 07:50:19;;;;;;;15.40;12.98;;;19.50;99.90;;;;;;5114556;28;20246;-78
2022/04/22 07:52:45;;;;;;;17.42;12.70;;;20.10;99.90;;;;;;5111904;28;20620;-77
2022/04/22 07:55:15;;;;;;;15.68;12.48;;;20.90;99.90;;;;;;5093878;28;20179;-78
2022/04/22 07:57:41;;;;;;;18.50;12.88;;;19.20;99.90;;;;;;5107624;28;20248;-78
2022/04/22 08:00:09;;;;;;;18.90;13.82;;;18.60;99.90;;;;;;5110966;28;20180;-78
2022/04/22 08:02:35;;;;;;;14.45;13.05;;;19.20;99.90;;;;;;5112704;28;20225;-77
2022/04/22 08:05:00;;;;;;;14.15;12.75;;;19.70;99.90;;;;;;5085713;28;20633;-78
2022/04/22 08:07:26;;;;;;;14.82;13.20;;;19.50;99.90;;;;;;5094838;28;20200;-79
2022/04/22 08:09:52;;;;;;;14.68;13.20;;;19.30;99.90;;;;;;5094721;28;20182;-78
2022/04/22 08:12:19;;;;;;;16.48;13.00;;;20.00;99.90;;;;;;5113945;28;20267;-79
2022/04/22 08:14:45;;;;;;;16.52;13.85;;;20.30;99.90;;;;;;5113451;28;20167;-78
2022/04/22 08:17:11;;;;;;;17.38;13.20;;;20.60;99.90;;;;;;5112181;28;20248;-78
2022/04/22 08:19:37;;;;;;;17.45;14.27;;;17.90;99.90;;;;;;5107519;28;20172;-78
2022/04/22 08:22:02;;;;;;;17.10;15.07;;;16.80;1.00;;;;;;5093819;28;20293;-78
2022/04/22 08:24:29;;;;;;;16.77;13.83;;;16.80;1.00;;;;;;5094690;28;20175;-79
2022/04/22 08:26:57;;;;;;;18.27;14.80;;;16.40;99.90;;;;;;5113017;28;20175;-79
2022/04/22 08:29:22;;;;;;;19.37;15.17;;;16.80;99.90;;;;;;5109842;28;20271;-79
2022/04/22 08:31:49;;;;;;;17.90;14.43;;;17.70;1.00;;;;;;5112508;28;20211;-79
2022/04/22 08:34:15;;;;;;;17.00;14.13;;;17.50;1.00;;;;;;5112491;28;20202;-78
2022/04/22 08:36:40;;;;;;;17.83;15.57;;;17.10;1.00;;;;;;5102034;28;20254;-79
2022/04/22 08:39:06;;;;;;;15.30;13.17;;;16.80;1.00;;;;;;5082740;28;20247;-79
2022/04/22 08:41:35;;;;;;;17.23;13.97;;;17.90;1.00;;;;;;5112582;28;20198;-79
2022/04/22 08:44:01;;;;;;;16.07;14.37;;;18.10;1.00;;;;;;5112407;28;20171;-80
2022/04/22 08:51:56;;;;;;;16.47;12.97;;;16.70;99.90;;;;;;5112136;28;20649;-77
2022/04/22 08:54:22;;;;;;;18.07;13.87;;;16.80;1.00;;;;;;5094305;28;20178;-77
2022/04/22 08:56:50;;;;;;;18.23;15.53;;;16.90;1.00;;;;;;5089429;28;20785;-78
2022/04/22 08:59:16;;;;;;;18.17;14.80;;;17.40;1.00;;;;;;5090635;28;20254;-79
2022/04/22 09:01:42;;;;;;;16.13;13.53;;;18.00;1.00;;;;;;5091765;28;20203;-79
2022/04/22 09:04:07;;;;;;;18.45;12.57;;;18.20;1.00;;;;;;5091348;28;20194;-79
2022/04/22 09:06:34;;;;;;;18.60;14.80;;;17.80;1.00;;;;;;5078659;28;20667;-77
2022/04/22 09:08:59;;;;;;;19.30;15.73;;;16.90;1.00;;;;;;5087827;28;20168;-76
2022/04/22 09:11:26;;;;;;;20.07;15.40;;;16.20;99.90;;;;;;5092106;28;20588;-77
2022/04/22 09:13:53;;;;;;;17.83;14.00;;;16.30;99.90;;;;;;5092137;28;20210;-77
2022/04/22 09:16:20;;;;;;;18.47;15.73;;;15.90;1.00;;;;;;5091950;28;20650;-74
2022/04/22 09:18:46;;;;;;;18.33;15.17;;;15.00;1.00;;;;;;5087679;28;20180;-74
2022/04/22 09:21:16;;;;;;;19.03;14.90;;;15.00;1.00;;;;;;5088646;28;20662;-73
2022/04/22 09:23:42;;;;;;;17.90;15.63;;;14.70;1.00;;;;;;5092125;28;20187;-74
2022/04/22 09:26:30;;;;;;;21.47;17.10;;;14.70;1.00;;;;;;5092050;28;20171;-73
2022/04/22 09:29:01;;;;;;;17.40;15.60;;;14.90;1.00;;;;;;5080073;28;20238;-75
2022/04/22 09:31:27;;;;;;;17.07;15.27;;;16.00;99.90;;;;;;5093947;28;20535;-75
2022/04/22 09:33:54;;;;;;;16.77;14.97;;;16.70;33.20;;;;;;5095120;28;20168;-75
2022/04/22 09:45:00;;;;;;;16.23;14.53;;;17.50;1.00;;;;;;5096109;28;20309;-78
2022/04/22 09:47:30;;;;;;;23.53;15.50;;;17.00;1.00;;;;;;5090337;28;20164;-75
2022/04/22 09:49:57;;;;;;;17.93;14.70;;;16.20;99.90;;;;;;5094900;28;20175;-74
2022/04/22 09:52:30;;;;;;;15.73;14.00;;;16.70;1.00;;;;;;5085904;28;20172;-74
2022/04/22 09:55:01;;;;;;;20.07;14.70;;;16.40;1.00;;;;;;5095811;28;20253;-73
2022/04/22 09:57:28;;;;;;;16.53;13.30;;;16.10;99.90;;;;;;5093512;28;20228;-72
2022/04/22 09:59:54;;;;;;;15.53;13.33;;;15.80;99.90;;;;;;5095581;28;20172;-71
2022/04/22 10:02:23;;;;;;;15.80;13.33;;;15.50;1.00;;;;;;5095324;28;20200;-71
2022/04/22 10:04:50;;;;;;;16.27;14.03;;;14.90;1.00;;;;;;5094970;28;20172;-72
2022/04/22 10:07:17;;;;;;;16.07;12.17;;;15.30;1.00;;;;;;5094470;28;20215;-71
2022/04/22 10:09:45;;;;;;;14.07;10.97;;;15.10;99.90;;;;;;5095204;28;20175;-71
2022/04/22 10:12:15;;;;;;;15.87;11.90;;;14.90;1.00;;;;;;5094788;28;20570;-71
2022/04/22 10:14:43;;;;;;;15.30;12.87;;;14.90;99.90;;;;;;5089688;28;20210;-73
2022/04/22 10:17:10;;;;;;;12.40;11.00;;;15.10;99.90;;;;;;5093702;28;20642;-72
2022/04/22 10:19:36;;;;;;;13.27;10.67;;;15.00;99.90;;;;;;5091778;28;20636;-72
2022/04/22 10:22:04;;;;;;;13.37;10.03;;;15.10;99.90;;;;;;5087511;28;20249;-71
2022/04/22 10:24:34;;;;;;;12.60;9.97;;;15.20;1.00;;;;;;5087390;28;20172;-71
2022/04/22 10:27:02;;;;;;;10.80;9.30;;;15.20;1.00;;;;;;5078447;28;20632;-71
2022/04/22 10:29:30;;;;;;;9.23;8.23;;;15.50;99.90;;;;;;5089289;28;20172;-72
2022/04/22 10:31:56;;;;;;;10.90;8.27;;;15.50;25.90;;;;;;5089173;28;20259;-72
2022/04/22 10:34:43;;;;;;;8.50;6.97;;;15.20;1.00;;;;;;5090046;28;20221;-71
2022/04/22 10:37:23;;;;;;;9.13;7.47;;;15.20;1.00;;;;;;5093191;28;20200;-71
2022/04/22 10:39:51;;;;;;;9.47;8.10;;;15.10;1.00;;;;;;5094737;28;20183;-71
2022/04/22 10:42:17;;;;;;;10.63;8.27;;;15.60;1.00;;;;;;5091871;28;20208;-71
2022/04/22 10:47:58;;;;;;;11.43;9.03;;;15.30;1.00;;;;;;5093998;28;20190;-71
2022/04/22 10:50:30;;;;;;;12.20;10.23;;;14.90;99.90;;;;;;5070307;28;20181;-72
2022/04/22 10:52:56;;;;;;;13.03;10.10;;;14.90;99.90;;;;;;5071079;28;20272;-72
2022/04/22 10:55:22;;;;;;;14.03;10.50;;;14.90;1.00;;;;;;5065142;28;20786;-72
2022/04/22 10:57:51;;;;;;;10.20;9.23;;;15.00;99.90;;;;;;5053248;28;20217;-71
2022/04/22 11:00:17;;;;;;;9.77;8.87;;;15.00;99.90;;;;;;5055964;28;20205;-72
2022/04/22 11:02:43;;;;;;;12.10;10.80;;;14.90;99.90;;;;;;5051602;28;20235;-72
2022/04/22 11:05:20;;;;;;;8.30;7.47;;;14.60;1.00;;;;;;5055017;28;20559;-71
2022/04/22 11:07:56;;;;;;;11.03;9.73;;;14.40;1.00;;;;;;5070174;28;20195;-72
2022/04/22 11:10:25;;;;;;;10.37;9.27;;;14.60;1.00;;;;;;5070846;28;20180;-71
2022/04/22 11:12:57;;;;;;;10.50;9.30;;;14.90;99.90;;;;;;5072282;28;20173;-71
2022/04/22 11:15:46;;;;;;;12.27;11.07;;;14.80;99.90;;;;;;5065755;28;20180;-71
2022/04/22 11:18:16;;;;;;;11.60;10.20;;;14.70;1.00;;;;;;5069221;28;20555;-71
2022/04/22 11:20:44;;;;;;;14.53;10.73;;;14.50;1.00;;;;;;5070973;28;20180;-72
2022/04/22 11:23:14;;;;;;;12.23;10.60;;;14.50;99.90;;;;;;5069445;28;20318;-71
2022/04/22 11:25:41;;;;;;;19.67;12.60;;;14.60;99.90;;;;;;5067582;28;20228;-72
2022/04/22 11:28:08;;;;;;;15.83;13.03;;;14.70;1.00;;;;;;5092489;28;20176;-71
2022/04/22 11:30:35;;;;;;;13.97;12.37;;;14.70;1.00;;;;;;5073903;28;20175;-71
2022/04/22 11:33:20;;;;;;;14.87;13.37;;;14.60;99.90;;;;;;5073002;28;20238;-70
2022/04/22 11:35:56;;;;;;;15.03;12.67;;;14.50;1.00;;;;;;5071926;28;20208;-72
2022/04/22 11:38:22;;;;;;;16.03;13.70;;;14.50;99.90;;;;;;5074324;28;20259;-72
2022/04/22 11:40:49;;;;;;;17.23;13.90;;;14.50;99.90;;;;;;5070003;28;20695;-72
2022/04/22 11:43:18;;;;;;;15.77;14.07;;;14.50;99.90;;;;;;5085455;28;20210;-71
2022/04/22 11:45:46;;;;;;;15.93;14.23;;;14.60;99.90;;;;;;5083662;28;20164;-72
2022/04/22 11:48:19;;;;;;;13.40;12.00;;;14.70;99.90;;;;;;5083317;28;20174;-71
2022/04/22 11:50:46;;;;;;;16.00;12.73;;;14.70;1.00;;;;;;5092712;28;20168;-71
2022/04/22 11:53:34;;;;;;;14.77;13.07;;;14.40;1.00;;;;;;5092482;28;20164;-70
2022/04/22 11:56:01;;;;;;;15.57;13.27;;;14.40;1.00;;;;;;5078282;28;20183;-71
2022/04/22 11:58:27;;;;;;;13.30;10.93;;;14.70;99.90;;;;;;5111901;28;20186;-73
2022/04/22 12:06:24;;;;;;;11.00;9.73;;;14.60;1.00;;;;;;5112143;28;20271;-73
2022/04/22 12:08:56;;;;;;;11.60;9.20;;;15.00;1.00;;;;;;5104737;28;20202;-72
2022/04/22 12:11:23;;;;;;;11.27;9.77;;;15.40;1.00;;;;;;5112881;28;20183;-72
2022/04/22 12:13:50;;;;;;;9.50;8.37;;;15.50;99.90;;;;;;5102395;28;20681;-73
2022/04/22 12:16:20;;;;;;;10.30;9.30;;;15.60;99.90;;;;;;5112176;28;20254;-72
2022/04/22 12:18:50;;;;;;;9.97;8.97;;;15.60;99.90;;;;;;5106882;28;20180;-73
2022/04/22 12:21:19;;;;;;;10.30;8.60;;;15.50;99.90;;;;;;5090462;28;20241;-73
2022/04/22 12:23:47;;;;;;;12.37;9.53;;;16.00;90.00;;;;;;5112844;28;20220;-74
2022/04/22 12:26:20;;;;;;;11.93;8.87;;;15.70;1.00;;;;;;5112762;28;20175;-73
2022/04/22 12:29:09;;;;;;;10.90;8.60;;;15.90;1.00;;;;;;5112620;28;20630;-74
2022/04/22 12:31:47;;;;;;;11.67;10.20;;;16.30;1.00;;;;;;5112558;28;20220;-74
2022/04/22 12:34:15;;;;;;;13.40;9.60;;;16.40;1.00;;;;;;5082296;28;20649;-74
2022/04/22 12:36:52;;;;;;;15.43;10.30;;;16.70;1.00;;;;;;5086321;28;20224;-74
2022/04/22 12:39:43;;;;;;;11.63;10.20;;;16.70;1.00;;;;;;5112530;28;20177;-73
2022/04/22 12:42:17;;;;;;;10.17;9.17;;;16.70;1.00;;;;;;5097426;28;20194;-73
2022/04/22 12:52:08;;;;;;;10.90;9.20;;;16.60;1.00;;;;;;5102751;28;20613;-72
2022/04/22 12:53:34;;;;;;;11.73;9.77;;;16.50;1.00;;;;;;5102271;28;20255;-72
2022/04/22 12:56:04;;;;;;;9.97;8.77;;;16.60;1.00;;;;;;5097184;28;20167;-72
2022/04/22 12:58:32;;;;;;;9.27;8.47;;;16.80;99.90;;;;;;5105534;28;20206;-72
2022/04/22 13:00:58;;;;;;;9.40;8.17;;;16.50;99.90;;;;;;5108468;28;20198;-72
2022/04/22 13:03:36;;;;;;;10.73;9.63;;;16.10;99.90;;;;;;5104231;28;20179;-72
2022/04/22 13:06:02;;;;;;;11.67;10.33;;;16.00;1.00;;;;;;5116310;28;20166;-73
2022/04/22 13:08:27;;;;;;;10.00;9.00;;;16.40;1.00;;;;;;5119646;28;20647;-75
2022/04/22 13:10:57;;;;;;;12.40;9.50;;;16.70;1.00;;;;;;5119230;28;20185;-73
2022/04/22 13:13:23;;;;;;;10.00;8.57;;;16.50;1.00;;;;;;5119473;28;20167;-73
2022/04/22 13:15:49;;;;;;;10.33;9.20;;;16.30;1.00;;;;;;5119868;28;20174;-74
2022/04/22 13:18:15;;;;;;;11.00;9.87;;;16.20;1.00;;;;;;5119433;28;20641;-73
2022/04/22 13:20:40;;;;;;;9.47;8.47;;;16.10;1.00;;;;;;5119045;28;20183;-72
2022/04/22 13:23:07;;;;;;;10.97;9.90;;;16.00;1.00;;;;;;5100514;28;20380;-72
2022/04/22 13:25:33;;;;;;;14.50;9.67;;;16.00;1.00;;;;;;5101030;28;20292;-73
2022/04/22 13:27:58;;;;;;;11.67;7.40;;;15.90;1.00;;;;;;5118916;28;20634;-73
2022/04/22 13:30:25;;;;;;;14.33;10.73;;;15.80;1.00;;;;;;5118842;27;20181;-73
2022/04/22 13:32:50;;;;;;;12.77;9.93;;;15.90;1.00;;;;;;5119294;28;20167;-74
2022/04/22 13:35:16;;;;;;;12.00;10.53;;;16.10;1.00;;;;;;5119228;27;20201;-73
2022/04/22 13:37:42;;;;;;;11.50;10.33;;;16.40;1.00;;;;;;5119263;28;20642;-72
2022/04/22 13:40:08;;;;;;;10.57;9.57;;;16.20;1.00;;;;;;5119024;28;20204;-73
2022/04/22 13:42:33;;;;;;;12.57;9.23;;;16.20;1.00;;;;;;5118842;28;20211;-73
2022/04/22 13:53:11;;;;;;;12.40;11.13;;;16.40;1.00;;;;;;5119325;28;20170;-74
2022/04/22 13:55:39;;;;;;;11.63;10.43;;;16.70;1.00;;;;;;5100746;28;20175;-73
2022/04/22 13:58:06;;;;;;;14.30;10.53;;;16.90;1.00;;;;;;5118217;28;20348;-74
2022/04/22 14:00:32;;;;;;;13.40;11.97;;;16.90;1.00;;;;;;5119002;28;20188;-74
2022/04/22 14:02:57;;;;;;;12.87;11.53;;;16.50;1.00;;;;;;5118298;28;20768;-73
2022/04/22 14:05:23;;;;;;;13.37;10.90;;;16.50;1.00;;;;;;5119272;28;20166;-74